createdAt,value
2022-08-01T00:02:59.930Z,18.75
2022-08-01T00:08:05.534Z,19.01
2022-08-01T00:13:09.094Z,19.37
2022-08-01T00:18:14.382Z,19.51
2022-08-01T00:23:19.478Z,19.51
2022-08-01T00:28:23.237Z,19.49
2022-08-01T00:33:26.937Z,19.45
2022-08-01T00:38:32.403Z,19.49
2022-08-01T00:43:36.228Z,19.51
2022-08-01T00:48:39.814Z,19.36
2022-08-01T00:53:51.449Z,18.95
2022-08-01T00:58:57.487Z,18.98
2022-08-01T01:04:01.026Z,18.97
2022-08-01T01:09:24.257Z,18.54
2022-08-01T01:14:38.945Z,18.75
2022-08-01T01:19:49.552Z,18.43
2022-08-01T01:25:07.883Z,18.63
2022-08-01T01:30:13.221Z,18.21
2022-08-01T01:35:23.595Z,18.14
2022-08-01T01:40:29.054Z,18.33
2022-08-01T01:45:34.708Z,18.09
2022-08-01T01:50:39.715Z,17.98
2022-08-01T01:55:49.581Z,18.08
2022-08-01T02:00:57.603Z,18.00
2022-08-01T02:06:03.757Z,17.81
2022-08-01T02:11:20.512Z,17.77
2022-08-01T02:16:29.387Z,17.75
2022-08-01T02:21:39.582Z,17.76
2022-08-01T02:26:49.758Z,17.70
2022-08-01T02:31:56.684Z,17.66
2022-08-01T02:37:02.630Z,17.80
2022-08-01T02:42:09.799Z,17.84
2022-08-01T02:47:15.177Z,18.11
2022-08-01T02:52:21.455Z,17.83
2022-08-01T02:57:29.569Z,17.82
2022-08-01T03:02:49.564Z,17.84
2022-08-01T03:07:55.293Z,17.66
2022-08-01T03:13:02.575Z,17.57
2022-08-01T03:18:10.473Z,17.55
2022-08-01T03:23:15.855Z,17.67
2022-08-01T03:28:22.945Z,17.72
2022-08-01T03:33:34.923Z,17.55
2022-08-01T03:38:41.573Z,17.60
2022-08-01T03:43:49.203Z,17.57
2022-08-01T03:48:57.454Z,17.53
2022-08-01T03:54:03.341Z,17.44
2022-08-01T03:59:07.581Z,17.62
2022-08-01T04:04:13.871Z,17.83
2022-08-01T04:09:17.888Z,17.77
2022-08-01T04:14:21.640Z,17.79
2022-08-01T04:19:26.988Z,18.01
2022-08-01T04:24:33.260Z,18.19
2022-08-01T04:29:39.115Z,18.18
2022-08-01T04:34:48.258Z,18.49
2022-08-01T04:39:55.799Z,18.64
2022-08-01T04:44:59.759Z,18.94
2022-08-01T04:50:08.379Z,19.14
2022-08-01T04:55:12.265Z,19.27
2022-08-01T05:00:18.387Z,19.23
2022-08-01T05:05:23.467Z,19.41
2022-08-01T05:10:27.277Z,19.22
2022-08-01T05:15:31.047Z,19.38
2022-08-01T05:20:36.084Z,20.00
2022-08-01T05:25:57.951Z,20.33
2022-08-01T05:31:02.607Z,20.30
2022-08-01T05:36:08.077Z,20.88
2022-08-01T05:41:12.734Z,20.86
2022-08-01T05:46:16.592Z,21.40
2022-08-01T05:51:21.599Z,21.41
2022-08-01T05:56:27.427Z,21.44
2022-08-01T06:01:34.267Z,21.72
2022-08-01T06:06:39.441Z,22.23
2022-08-01T06:11:58.177Z,23.04
2022-08-01T06:17:02.043Z,23.98
2022-08-01T06:22:07.616Z,25.55
2022-08-01T06:27:22.164Z,27.18
2022-08-01T06:32:27.948Z,26.56
2022-08-01T06:37:33.679Z,25.60
2022-08-01T06:42:38.547Z,24.71
2022-08-01T06:47:43.514Z,24.18
2022-08-01T06:52:48.480Z,23.35
2022-08-01T06:57:54.703Z,22.54
2022-08-01T07:03:00.604Z,22.34
2022-08-01T07:08:06.139Z,22.54
2022-08-01T07:13:09.656Z,22.78
2022-08-01T07:18:13.561Z,22.01
2022-08-01T07:23:22.528Z,22.08
2022-08-01T07:28:26.502Z,22.31
2022-08-01T07:33:48.977Z,22.69
2022-08-01T07:38:54.433Z,22.91
2022-08-01T07:44:01.712Z,22.80
2022-08-01T07:49:08.015Z,22.56
2022-08-01T07:54:13.016Z,21.02
2022-08-01T07:59:24.005Z,20.34
2022-08-01T08:04:30.323Z,20.12
2022-08-01T08:09:37.457Z,20.00
2022-08-01T08:14:41.687Z,20.52
2022-08-01T08:19:45.443Z,20.53
2022-08-01T08:24:50.402Z,20.79
2022-08-01T08:29:54.330Z,20.68
2022-08-01T08:34:58.204Z,21.47
2022-08-01T08:40:04.118Z,21.26
2022-08-01T08:45:12.147Z,21.39
2022-08-01T08:50:16.461Z,21.44
2022-08-01T08:55:22.231Z,21.70
2022-08-01T09:00:26.208Z,21.86
2022-08-01T09:05:38.680Z,23.04
2022-08-01T09:10:44.446Z,22.70
2022-08-01T09:15:51.344Z,22.60
2022-08-01T09:21:10.080Z,22.75
2022-08-01T09:26:16.871Z,23.41
2022-08-01T09:31:24.842Z,23.61
2022-08-01T09:36:54.306Z,23.18
2022-08-01T09:42:02.835Z,22.65
2022-08-01T09:47:07.814Z,22.72
2022-08-01T09:52:17.364Z,22.95
2022-08-01T09:57:22.671Z,23.34
2022-08-01T10:02:31.910Z,23.75
2022-08-01T10:07:43.608Z,24.13
2022-08-01T10:12:50.788Z,24.29
2022-08-01T10:17:57.262Z,24.83
2022-08-01T10:23:05.814Z,25.52
2022-08-01T10:28:18.245Z,24.78
2022-08-01T10:33:51.865Z,26.06
2022-08-01T10:38:49.720Z,26.35
2022-08-01T10:43:55.199Z,25.35
2022-08-01T10:49:06.327Z,26.07
2022-08-01T10:54:13.267Z,26.32
2022-08-01T10:59:29.181Z,26.53
2022-08-01T11:04:56.263Z,25.71
2022-08-01T11:10:05.840Z,24.97
2022-08-01T11:15:32.275Z,25.69
2022-08-01T11:20:42.285Z,25.64
2022-08-01T11:26:10.317Z,25.48
2022-08-01T11:31:37.226Z,25.09
2022-08-01T11:36:59.264Z,25.35
2022-08-01T11:42:21.743Z,25.37
2022-08-01T11:47:47.397Z,26.06
2022-08-01T11:52:59.938Z,25.32
2022-08-01T11:58:05.342Z,25.01
2022-08-01T12:03:15.177Z,26.24
2022-08-01T12:08:28.416Z,26.02
2022-08-01T12:13:42.212Z,25.17
2022-08-01T12:18:47.460Z,26.47
2022-08-01T12:24:03.421Z,27.42
2022-08-01T12:29:07.827Z,27.48
2022-08-01T12:34:35.099Z,26.45
2022-08-01T12:39:41.383Z,26.24
2022-08-01T12:44:50.317Z,26.25
2022-08-01T12:49:55.870Z,25.98
2022-08-01T12:55:18.867Z,25.71
2022-08-01T13:00:26.211Z,25.83
2022-08-01T13:05:44.966Z,27.13
2022-08-01T13:10:49.434Z,26.61
2022-08-01T13:16:06.492Z,26.08
2022-08-01T13:21:17.756Z,26.49
2022-08-01T13:26:40.047Z,25.47
2022-08-01T13:31:45.182Z,25.80
2022-08-01T13:36:50.415Z,26.32
2022-08-01T13:41:55.354Z,26.89
2022-08-01T13:46:59.619Z,26.86
2022-08-01T13:52:07.447Z,26.94
2022-08-01T13:57:11.644Z,27.10
2022-08-01T14:02:15.393Z,27.08
2022-08-01T14:07:20.599Z,26.88
2022-08-01T14:12:25.750Z,26.97
2022-08-01T14:17:29.487Z,26.88
2022-08-01T14:22:34.953Z,27.12
2022-08-01T14:27:40.981Z,27.14
2022-08-01T14:32:45.034Z,27.28
2022-08-01T14:37:50.046Z,27.42
2022-08-01T14:42:53.561Z,26.40
2022-08-01T14:47:57.355Z,26.28
2022-08-01T14:53:02.484Z,26.04
2022-08-01T14:58:06.441Z,26.19
2022-08-01T15:03:10.102Z,26.10
2022-08-01T15:08:15.198Z,26.53
2022-08-01T15:13:18.733Z,26.53
2022-08-01T15:18:22.487Z,26.48
2022-08-01T15:23:27.429Z,27.21
2022-08-01T15:28:31.568Z,27.28
2022-08-01T15:33:35.520Z,26.82
2022-08-01T15:38:40.581Z,26.34
2022-08-01T15:43:44.989Z,26.49
2022-08-01T15:48:49.043Z,26.76
2022-08-01T15:53:54.158Z,26.81
2022-08-01T15:58:57.819Z,26.77
2022-08-01T16:04:01.841Z,26.83
2022-08-01T16:09:07.964Z,26.50
2022-08-01T16:14:22.794Z,25.68
2022-08-01T16:19:26.978Z,25.57
2022-08-01T16:24:32.696Z,25.90
2022-08-01T16:29:36.793Z,25.82
2022-08-01T16:34:41.455Z,25.84
2022-08-01T16:39:52.703Z,25.21
2022-08-01T16:45:02.454Z,25.12
2022-08-01T16:50:13.528Z,25.29
2022-08-01T16:55:23.506Z,25.81
2022-08-01T17:00:28.122Z,25.74
2022-08-01T17:05:33.839Z,25.55
2022-08-01T17:10:39.906Z,25.75
2022-08-01T17:15:44.527Z,25.03
2022-08-01T17:20:50.487Z,25.03
2022-08-01T17:25:56.684Z,24.82
2022-08-01T17:31:01.431Z,24.63
2022-08-01T17:36:07.119Z,24.48
2022-08-01T17:41:15.107Z,24.41
2022-08-01T17:46:19.324Z,24.33
2022-08-01T17:51:23.766Z,24.20
2022-08-01T17:56:31.865Z,23.75
2022-08-01T18:01:37.352Z,23.67
2022-08-01T18:06:58.260Z,23.55
2022-08-01T18:12:05.511Z,23.64
2022-08-01T18:17:14.123Z,23.17
2022-08-01T18:22:33.203Z,23.31
2022-08-01T18:28:19.633Z,22.98
2022-08-01T18:33:04.181Z,22.81
2022-08-01T18:38:10.057Z,22.52
2022-08-01T18:43:15.328Z,22.54
2022-08-01T18:48:22.017Z,22.22
2022-08-01T18:53:26.257Z,21.95
2022-08-01T18:58:31.830Z,21.46
2022-08-01T19:03:42.477Z,21.20
2022-08-01T19:08:47.688Z,20.94
2022-08-01T19:13:54.609Z,20.86
2022-08-01T19:18:58.537Z,21.03
2022-08-01T19:24:23.575Z,20.92
2022-08-01T19:29:35.739Z,20.19
2022-08-01T19:34:47.395Z,20.35
2022-08-01T19:39:51.625Z,20.47
2022-08-01T19:44:58.714Z,20.08
2022-08-01T19:50:03.784Z,20.28
2022-08-01T19:55:10.619Z,20.40
2022-08-01T20:00:23.411Z,20.52
2022-08-01T20:05:33.297Z,20.69
2022-08-01T20:10:39.755Z,20.81
2022-08-01T20:15:48.615Z,20.85
2022-08-01T20:20:54.404Z,20.72
2022-08-01T20:26:00.499Z,20.68
2022-08-01T20:31:09.586Z,20.59
2022-08-01T20:36:24.975Z,20.76
2022-08-01T20:41:30.976Z,20.65
2022-08-01T20:46:40.389Z,20.47
2022-08-01T20:51:46.136Z,20.32
2022-08-01T20:56:57.781Z,19.85
2022-08-01T21:02:09.524Z,19.70
2022-08-01T21:07:23.524Z,19.64
2022-08-01T21:12:28.836Z,19.27
2022-08-01T21:17:42.099Z,19.71
2022-08-01T21:22:53.987Z,19.34
2022-08-01T21:27:57.777Z,19.19
2022-08-01T21:33:03.237Z,19.19
2022-08-01T21:38:08.411Z,18.95
2022-08-01T21:43:12.768Z,18.53
2022-08-01T21:48:26.735Z,18.42
2022-08-01T21:53:38.601Z,18.31
2022-08-01T21:58:53.254Z,18.54
2022-08-01T22:04:00.781Z,18.19
2022-08-01T22:09:07.165Z,18.11
2022-08-01T22:14:14.979Z,18.04
2022-08-01T22:19:32.418Z,18.11
2022-08-01T22:24:46.937Z,17.81
2022-08-01T22:29:55.589Z,17.91
2022-08-01T22:35:04.319Z,17.69
2022-08-01T22:40:11.113Z,17.79
2022-08-01T22:45:19.397Z,17.76
2022-08-01T22:50:36.696Z,17.52
2022-08-01T22:55:59.492Z,17.78
2022-08-01T23:01:04.414Z,17.84
2022-08-01T23:06:13.970Z,17.65
2022-08-01T23:11:21.407Z,17.91
2022-08-01T23:16:26.682Z,17.69
2022-08-01T23:21:35.158Z,17.89
2022-08-01T23:26:41.756Z,17.93
2022-08-01T23:32:00.770Z,17.25
2022-08-01T23:37:08.761Z,17.49
2022-08-01T23:42:14.198Z,17.59
2022-08-01T23:47:18.657Z,17.36
2022-08-01T23:52:24.020Z,17.46
2022-08-01T23:57:41.143Z,17.39
